createdAt,value
2019-05-22T00:07:15.234Z,60178.73
2019-05-22T00:12:13.106Z,60171.35
2019-05-22T00:17:10.950Z,60207.85
2019-05-22T00:22:12.095Z,60173.97
2019-05-22T00:27:10.686Z,60203.47
2019-05-22T00:32:08.862Z,60179.44
2019-05-22T00:37:05.418Z,60195.59
2019-05-22T00:42:01.747Z,60212.24
2019-05-22T00:46:57.696Z,60195.01
2019-05-22T00:51:55.618Z,60209.85
2019-05-22T00:56:57.036Z,60191.80
2019-05-22T01:01:54.878Z,60157.09
2019-05-22T01:06:53.324Z,60198.24
2019-05-22T01:11:51.285Z,60159.34
2019-05-22T01:16:49.278Z,60157.29
2019-05-22T01:21:45.901Z,60159.88
2019-05-22T01:26:43.155Z,60124.19
2019-05-22T01:31:41.103Z,60145.80
2019-05-22T01:36:44.967Z,60138.91
2019-05-22T01:41:43.739Z,60123.59
2019-05-22T01:46:41.318Z,60149.35
2019-05-22T01:51:38.241Z,60139.38
2019-05-22T01:56:35.279Z,60118.61
2019-05-22T02:01:31.786Z,60154.10
2019-05-22T02:06:29.486Z,60169.54
2019-05-22T02:11:26.813Z,60125.81
2019-05-22T02:16:23.644Z,60158.72
2019-05-22T02:21:19.998Z,60122.50
2019-05-22T02:26:17.378Z,60112.96
2019-05-22T02:36:24.574Z,60131.04
2019-05-22T02:41:24.318Z,60114.88
2019-05-22T02:46:20.833Z,60114.15
2019-05-22T02:51:16.769Z,60071.01
2019-05-22T02:56:13.287Z,60082.75
2019-05-22T03:01:09.767Z,60043.58
2019-05-22T03:06:11.790Z,60059.69
2019-05-22T03:11:07.824Z,60035.34
2019-05-22T03:16:05.957Z,60052.21
2019-05-22T03:21:01.986Z,60037.01
2019-05-22T03:25:57.924Z,60085.10
2019-05-22T03:30:53.960Z,60044.02
2019-05-22T03:36:16.403Z,60073.66
2019-05-22T03:41:12.939Z,60055.38
2019-05-22T03:46:39.692Z,60048.75
2019-05-22T03:51:35.731Z,60058.23
2019-05-22T03:56:35.665Z,60052.06
2019-05-22T04:01:32.602Z,60031.74
2019-05-22T04:06:29.442Z,60030.07
2019-05-22T04:11:29.512Z,59990.21
2019-05-22T04:16:27.046Z,60049.67
2019-05-22T04:21:22.983Z,60017.14
2019-05-22T04:26:20.134Z,60009.08
2019-05-22T04:31:17.161Z,60012.86
2019-05-22T04:36:13.161Z,60058.55
2019-05-22T04:41:09.885Z,60058.42
2019-05-22T04:46:07.690Z,60044.81
2019-05-22T04:51:23.439Z,60004.32
2019-05-22T04:56:19.561Z,60042.50
2019-05-22T05:01:16.190Z,60002.63
2019-05-22T05:06:12.525Z,60015.68
2019-05-22T05:11:09.181Z,59983.88
2019-05-22T05:16:06.031Z,60017.20
2019-05-22T05:21:01.980Z,59976.39
2019-05-22T05:25:58.248Z,59966.29
2019-05-22T05:30:54.577Z,60043.15
2019-05-22T05:35:50.618Z,59975.29
2019-05-22T05:40:47.111Z,59988.06
2019-05-22T05:45:45.046Z,59932.91
2019-05-22T05:51:01.205Z,59966.80
2019-05-22T05:56:04.169Z,59977.11
2019-05-22T06:01:11.093Z,59945.35
2019-05-22T06:06:23.874Z,59939.07
2019-05-22T06:11:32.958Z,59938.23
2019-05-22T06:16:52.837Z,59983.63
2019-05-22T06:21:49.816Z,59980.20
2019-05-22T06:26:54.938Z,59957.31
2019-05-22T06:32:04.211Z,59920.65
2019-05-22T06:37:07.732Z,59920.05
2019-05-22T06:42:05.568Z,59953.36
2019-05-22T06:47:02.348Z,59910.92
2019-05-22T06:52:05.066Z,59904.58
2019-05-22T06:57:01.203Z,59906.25
2019-05-22T07:02:01.406Z,59917.88
2019-05-22T07:06:57.511Z,59930.11
2019-05-22T07:11:54.369Z,59948.04
2019-05-22T07:16:50.499Z,59922.44
2019-05-22T07:21:48.131Z,59907.49
2019-05-22T07:26:45.221Z,59892.34
2019-05-22T07:31:41.192Z,59912.24
2019-05-22T07:36:38.526Z,59986.47
2019-05-22T07:41:34.662Z,59987.21
2019-05-22T07:46:31.096Z,59926.06
2019-05-22T07:51:27.254Z,59980.73
2019-05-22T07:56:23.787Z,59965.51
2019-05-22T08:01:19.718Z,60008.49
2019-05-22T08:06:16.146Z,59953.69
2019-05-22T08:11:12.981Z,59985.94
2019-05-22T08:16:09.218Z,59930.17
2019-05-22T08:21:05.766Z,59930.85
2019-05-22T08:26:02.024Z,59943.43
2019-05-22T08:30:58.925Z,59911.54
2019-05-22T08:35:55.440Z,59935.00
2019-05-22T08:40:51.681Z,59949.23
2019-05-22T08:45:48.143Z,59940.41
2019-05-22T08:50:45.307Z,59989.56
2019-05-22T08:55:42.649Z,60041.41
2019-05-22T09:00:38.788Z,60147.23
2019-05-22T09:05:34.716Z,60057.43
2019-05-22T09:10:31.349Z,60030.22
2019-05-22T09:15:28.486Z,60094.18
2019-05-22T09:20:25.152Z,60072.25
2019-05-22T09:25:21.761Z,60090.60
2019-05-22T09:30:18.415Z,60158.69
2019-05-22T09:35:14.737Z,60173.08
2019-05-22T09:40:10.973Z,60189.62
2019-05-22T09:45:08.046Z,60130.61
2019-05-22T09:50:08.935Z,60105.16
2019-05-22T09:55:06.374Z,60135.77
2019-05-22T10:00:06.328Z,60105.52
2019-05-22T10:05:04.210Z,60129.42
2019-05-22T10:10:00.131Z,60127.32
2019-05-22T10:14:56.574Z,60196.54
2019-05-22T10:19:53.401Z,60170.57
2019-05-22T10:24:50.960Z,47299.35
2019-05-22T10:29:48.066Z,47348.65
2019-05-22T10:34:44.195Z,47304.38
2019-05-22T10:39:40.336Z,47288.29
2019-05-22T10:44:36.309Z,47343.62
2019-05-22T10:49:32.331Z,47383.87
2019-05-22T10:54:28.367Z,47352.68
2019-05-22T10:59:24.320Z,47395.94
2019-05-22T11:04:22.326Z,47373.80
2019-05-22T11:09:19.747Z,47392.92
2019-05-22T11:14:16.053Z,47386.89
2019-05-22T11:19:12.071Z,47395.94
2019-05-22T11:24:08.299Z,47376.82
2019-05-22T11:29:04.419Z,47415.06
2019-05-22T11:34:00.724Z,47413.05
2019-05-22T11:39:01.920Z,47398.96
2019-05-22T11:43:58.090Z,47372.80
2019-05-22T11:48:54.277Z,47399.96
2019-05-22T11:54:07.395Z,47434.17
2019-05-22T11:58:48.765Z,47428.14
2019-05-22T12:03:44.659Z,47449.27
2019-05-22T12:08:44.215Z,47463.35
2019-05-22T12:13:40.328Z,47442.22
2019-05-22T12:18:36.720Z,47414.05
2019-05-22T12:23:33.073Z,47507.63
2019-05-22T12:28:29.341Z,47502.59
2019-05-22T12:33:25.544Z,47426.12
2019-05-22T12:38:26.719Z,47513.66
2019-05-22T12:43:21.121Z,47540.83
2019-05-22T12:48:17.277Z,47491.52
2019-05-22T12:53:14.609Z,47511.65
2019-05-22T12:58:10.738Z,47546.87
2019-05-22T13:03:07.070Z,47503.60
2019-05-22T13:08:03.490Z,47443.23
2019-05-22T13:13:00.189Z,47607.24
2019-05-22T13:17:58.004Z,47479.45
2019-05-22T13:22:57.406Z,47695.79
2019-05-22T13:27:57.739Z,47624.34
2019-05-22T13:32:54.741Z,47662.58
2019-05-22T13:37:51.257Z,47647.48
2019-05-22T13:42:47.410Z,47556.93
2019-05-22T13:47:45.799Z,47511.65
2019-05-22T13:52:42.225Z,47475.43
2019-05-22T13:57:40.256Z,47610.26
2019-05-22T14:02:36.776Z,47479.45
2019-05-22T14:07:32.797Z,47667.61
2019-05-22T14:12:29.129Z,47537.81
2019-05-22T14:17:25.235Z,47638.43
2019-05-22T14:22:21.379Z,47550.89
2019-05-22T14:27:18.786Z,47734.02
2019-05-22T14:32:15.733Z,47762.20
2019-05-22T14:37:11.756Z,47861.82
2019-05-22T14:42:08.531Z,47825.59
2019-05-22T14:47:12.999Z,47816.53
2019-05-22T14:52:02.946Z,47835.65
2019-05-22T14:56:59.253Z,47841.69
2019-05-22T15:01:55.375Z,47800.43
2019-05-22T15:06:51.405Z,47688.74
2019-05-22T15:11:47.732Z,47646.48
2019-05-22T15:16:43.754Z,47617.30
2019-05-22T15:21:39.948Z,47742.07
2019-05-22T15:26:36.378Z,47803.45
2019-05-22T15:31:32.303Z,47822.57
2019-05-22T15:36:28.534Z,47616.29
2019-05-22T15:41:25.362Z,47732.01
2019-05-22T15:46:23.416Z,47692.77
2019-05-22T15:51:23.748Z,47639.44
2019-05-22T15:56:20.698Z,47700.82
2019-05-22T16:01:19.861Z,47597.18
2019-05-22T16:06:16.232Z,47731.00
2019-05-22T16:11:15.344Z,47748.11
2019-05-22T16:16:14.262Z,47815.53
2019-05-22T16:21:10.891Z,47775.28
2019-05-22T16:26:08.425Z,47716.91
2019-05-22T16:31:07.819Z,47710.88
2019-05-22T16:36:05.133Z,47615.29
2019-05-22T16:41:01.197Z,47891.00
2019-05-22T16:45:57.655Z,47982.57
2019-05-22T16:50:53.587Z,47903.07
2019-05-22T16:55:49.617Z,47998.67
2019-05-22T17:00:47.447Z,47930.24
2019-05-22T17:05:43.636Z,47958.42
2019-05-22T17:10:39.960Z,47998.67
2019-05-22T17:15:37.034Z,47835.65
2019-05-22T17:20:33.364Z,47901.06
2019-05-22T17:25:29.686Z,47874.89
2019-05-22T17:30:26.211Z,47970.49
2019-05-22T17:35:22.941Z,47910.12
2019-05-22T17:40:19.869Z,47999.68
2019-05-22T17:45:17.234Z,47997.66
2019-05-22T17:50:26.299Z,47910.12
2019-05-22T17:55:15.699Z,47658.55
2019-05-22T18:00:32.177Z,47791.37
2019-05-22T18:05:28.627Z,47916.15
2019-05-22T18:10:26.573Z,47933.26
2019-05-22T18:15:22.934Z,47738.05
2019-05-22T18:20:21.262Z,47768.23
2019-05-22T18:25:17.495Z,47873.89
2019-05-22T18:30:13.713Z,47920.18
2019-05-22T18:35:12.133Z,47836.66
2019-05-22T18:40:10.454Z,47846.72
2019-05-22T18:45:06.816Z,47750.12
2019-05-22T18:50:04.743Z,47694.78
2019-05-22T18:55:00.801Z,47728.99
2019-05-22T19:00:02.412Z,47773.27
2019-05-22T19:04:54.808Z,47757.16
2019-05-22T19:09:50.926Z,47606.23
2019-05-22T19:14:47.054Z,47538.82
2019-05-22T19:19:43.080Z,47459.33
2019-05-22T19:24:39.172Z,47387.89
2019-05-22T19:29:35.699Z,47352.68
2019-05-22T19:34:32.430Z,47336.58
2019-05-22T19:39:29.389Z,47264.14
2019-05-22T19:44:25.593Z,47348.65
2019-05-22T19:49:22.132Z,47301.36
2019-05-22T19:54:18.055Z,47229.93
2019-05-22T19:59:14.518Z,47225.91
2019-05-22T20:04:10.872Z,47259.11
2019-05-22T20:09:13.234Z,47244.02
2019-05-22T20:14:10.138Z,47181.64
2019-05-22T20:19:08.198Z,47117.25
2019-05-22T20:24:05.742Z,47155.48
2019-05-22T20:29:02.434Z,47163.53
2019-05-22T20:33:58.686Z,47140.39
2019-05-22T20:39:06.620Z,47098.13
2019-05-22T20:44:03.226Z,47116.24
2019-05-22T20:49:00.241Z,47147.43
2019-05-22T20:53:57.069Z,47124.29
2019-05-22T20:58:53.829Z,47155.48
2019-05-22T21:03:49.789Z,47098.13
2019-05-22T21:08:51.882Z,47103.16
2019-05-22T21:13:48.304Z,47124.29
2019-05-22T21:18:49.110Z,47095.11
2019-05-22T21:23:45.259Z,47068.96
2019-05-22T21:28:42.570Z,47126.30
2019-05-22T21:33:38.810Z,47124.29
2019-05-22T21:38:43.497Z,47109.20
2019-05-22T21:43:40.247Z,47083.04
2019-05-22T21:48:36.784Z,47014.63
2019-05-22T21:53:33.016Z,47036.76
2019-05-22T21:58:29.385Z,47070.97
2019-05-22T22:03:44.375Z,47057.89
2019-05-22T22:14:02.504Z,47116.24
2019-05-22T22:19:00.356Z,47134.35
2019-05-22T22:23:56.285Z,47182.64
2019-05-22T22:28:53.010Z,47158.50
2019-05-22T22:33:54.387Z,47165.54
2019-05-22T22:38:53.278Z,47179.63
2019-05-22T22:43:52.210Z,47155.48
2019-05-22T22:48:50.709Z,47173.59
2019-05-22T22:53:46.840Z,47171.57
2019-05-22T22:58:43.169Z,47185.66
2019-05-22T23:03:40.456Z,47149.44
2019-05-22T23:08:43.635Z,47109.20
2019-05-22T23:13:40.860Z,47107.19
2019-05-22T23:18:42.402Z,47084.05
2019-05-22T23:23:38.126Z,47097.12
2019-05-22T23:28:36.378Z,47086.06
2019-05-22T23:33:33.316Z,47069.96
2019-05-22T23:38:37.534Z,47043.80
2019-05-22T23:43:33.570Z,47022.68
2019-05-22T23:48:30.090Z,47048.83
2019-05-22T23:53:28.118Z,47009.60
2019-05-22T23:58:29.846Z,47040.79
